Time;durP1;ratioP1;P1;durP2;ratioP2;P2;SDS_P1;SDS_P2;PMS_P1;PMS_P2;Temp;Humidity;BMP_temperature;BMP_pressure;BME280_temperature;BME280_humidity;BME280_pressure;Samples;Min_cycle;Max_cycle;Signal;HPM_P1;HPM_P2
2022/10/29 00:00:53;;;;;;;3.83;2.33;;;;;;;22.05;52.34;101108.63;4535389;28;20049;-64
2022/10/29 00:03:04;;;;;;;4.30;2.75;;;;;;;22.06;52.31;101110.28;4525226;28;20424;-63
2022/10/29 00:05:14;;;;;;;5.25;2.42;;;;;;;22.06;52.83;101108.25;4525444;28;20088;-63
2022/10/29 00:07:25;;;;;;;3.90;2.40;;;;;;;22.06;52.99;101111.13;4523172;28;20037;-64
2022/10/29 00:09:35;;;;;;;2.72;2.13;;;;;;;22.05;52.98;101109.47;4524259;28;20025;-63
2022/10/29 00:11:46;;;;;;;3.22;2.25;;;;;;;22.05;53.04;101112.34;4523711;28;20033;-63
2022/10/29 00:13:58;;;;;;;3.13;2.00;;;;;;;22.06;52.87;101121.78;4523802;28;20038;-63
2022/10/29 00:16:11;;;;;;;4.63;2.28;;;;;;;22.05;52.76;101125.88;4524248;28;20135;-63
2022/10/29 00:18:22;;;;;;;2.85;2.28;;;;;;;22.06;53.12;101134.13;4523930;28;21252;-63
2022/10/29 00:20:32;;;;;;;4.03;2.70;;;;;;;22.05;52.78;101138.22;4523981;28;20100;-63
2022/10/29 00:22:43;;;;;;;3.10;2.20;;;;;;;22.05;52.92;101137.34;4534891;28;20047;-63
2022/10/29 00:24:53;;;;;;;3.95;2.28;;;;;;;22.06;52.89;101145.63;4524709;28;20033;-64
2022/10/29 00:27:03;;;;;;;4.47;2.55;;;;;;;22.04;53.41;101136.50;4538601;28;20034;-64
2022/10/29 00:29:14;;;;;;;3.90;2.20;;;;;;;22.05;53.46;101138.22;4524544;28;20068;-64
2022/10/29 00:31:24;;;;;;;4.18;2.38;;;;;;;22.06;53.13;101139.03;4522345;28;20094;-64
2022/10/29 00:33:35;;;;;;;4.13;2.40;;;;;;;22.06;53.34;101141.91;4525179;28;20065;-64
2022/10/29 00:36:00;;;;;;;3.65;2.60;;;;;;;22.05;53.48;101132.47;4522396;28;20068;-63
2022/10/29 00:38:10;;;;;;;4.25;2.42;;;;;;;22.05;53.19;101114.38;4523704;28;20386;-63
2022/10/29 00:40:20;;;;;;;3.97;2.53;;;;;;;22.05;53.29;101115.22;4524122;28;20033;-63
2022/10/29 00:42:31;;;;;;;3.50;2.33;;;;;;;22.06;53.45;101122.63;4523546;28;20034;-63
2022/10/29 00:44:41;;;;;;;3.67;2.10;;;;;;;22.05;53.14;101123.00;4523076;28;20929;-63
2022/10/29 00:47:09;;;;;;;4.22;2.28;;;;;;;22.06;53.03;101121.78;4522955;28;20056;-63
2022/10/29 00:49:20;;;;;;;4.38;2.42;;;;;;;22.05;52.92;101114.38;4521339;28;20044;-63
2022/10/29 00:51:31;;;;;;;5.47;2.42;;;;;;;22.05;53.42;101120.97;4524159;28;20040;-63
2022/10/29 00:53:47;;;;;;;5.75;2.40;;;;;;;22.05;52.79;101125.88;4521935;28;20037;-63
2022/10/29 00:55:58;;;;;;;4.90;2.70;;;;;;;22.02;53.13;101115.09;4522633;28;20037;-63
2022/10/29 00:58:10;;;;;;;4.40;2.38;;;;;;;22.04;53.16;101116.38;4523855;28;20104;-63
2022/10/29 01:00:21;;;;;;;4.95;2.65;;;;;;;22.04;53.03;101125.00;4523414;28;20042;-64
2022/10/29 01:02:34;;;;;;;3.55;2.50;;;;;;;22.04;52.88;101125.00;4523167;28;20033;-64
2022/10/29 01:04:45;;;;;;;3.75;2.53;;;;;;;22.04;52.56;101129.94;4523603;28;20763;-64
2022/10/29 01:06:55;;;;;;;4.85;2.65;;;;;;;22.04;52.38;101136.50;4523353;28;20047;-63
2022/10/29 01:09:05;;;;;;;4.38;2.65;;;;;;;22.05;52.82;101137.34;4523353;28;20044;-64
2022/10/29 01:11:43;;;;;;;3.42;2.17;;;;;;;22.03;52.52;101134.84;4539029;28;20670;-63
2022/10/29 01:14:21;;;;;;;4.15;2.40;;;;;;;22.04;52.48;101135.69;4522789;28;20046;-63
2022/10/29 01:16:34;;;;;;;4.18;2.50;;;;;;;22.03;52.49;101131.13;4523699;28;20042;-64
2022/10/29 01:19:03;;;;;;;3.15;2.10;;;;;;;22.03;52.58;101117.59;4522568;28;20051;-64
2022/10/29 01:21:32;;;;;;;4.25;2.50;;;;;;;22.03;52.36;101120.47;4522515;28;20025;-64
2022/10/29 01:24:01;;;;;;;5.03;2.55;;;;;;;22.03;52.84;101116.75;4523032;28;20029;-63
2022/10/29 01:26:46;;;;;;;5.35;3.13;;;;;;;22.03;53.03;101123.34;4523059;28;20034;-63
2022/10/29 01:29:20;;;;;;;4.03;2.40;;;;;;;22.03;52.62;101128.25;4521611;28;20588;-63
2022/10/29 01:31:52;;;;;;;4.60;2.70;;;;;;;22.03;53.01;101125.38;4522038;28;20168;-64
2022/10/29 01:34:27;;;;;;;3.75;2.50;;;;;;;22.03;52.89;101119.63;4522202;28;20048;-63
2022/10/29 01:36:43;;;;;;;4.63;2.50;;;;;;;22.02;52.61;101115.91;4523402;28;20044;-63
2022/10/29 01:39:15;;;;;;;3.97;2.50;;;;;;;22.02;52.69;101121.66;4536514;28;20041;-63
2022/10/29 01:41:42;;;;;;;4.30;2.47;;;;;;;22.02;52.74;101112.22;4522409;28;20102;-63
2022/10/29 01:44:30;;;;;;;4.20;2.55;;;;;;;22.02;52.18;101115.09;4523910;28;20021;-63
2022/10/29 01:46:48;;;;;;;3.15;2.50;;;;;;;22.01;52.56;101111.38;4520777;28;20065;-63
2022/10/29 01:49:03;;;;;;;4.13;2.67;;;;;;;22.02;52.40;101115.09;4522422;28;20580;-64
2022/10/29 01:51:27;;;;;;;4.45;2.88;;;;;;;22.02;52.80;101110.16;4520953;28;20035;-65
2022/10/29 01:53:39;;;;;;;3.55;2.35;;;;;;;21.99;52.78;101110.91;4522244;28;20569;-64
2022/10/29 01:55:49;;;;;;;6.55;2.50;;;;;;;22.02;53.03;101109.34;4522728;28;20087;-63
2022/10/29 01:58:06;;;;;;;5.45;2.63;;;;;;;22.02;52.95;101098.66;4523906;28;20033;-63
2022/10/29 02:00:18;;;;;;;3.80;2.47;;;;;;;22.01;53.12;101102.75;4521127;28;20169;-63
2022/10/29 02:02:38;;;;;;;4.03;2.78;;;;;;;22.01;52.69;101099.88;4522270;28;20037;-64
2022/10/29 02:05:00;;;;;;;4.70;2.70;;;;;;;22.00;52.91;101098.22;4522314;28;20052;-64
2022/10/29 02:07:29;;;;;;;4.38;2.78;;;;;;;22.01;52.93;101104.78;4518832;28;20049;-63
2022/10/29 02:09:56;;;;;;;4.43;2.50;;;;;;;22.00;52.67;101089.59;4521610;28;20610;-63
2022/10/29 02:12:21;;;;;;;3.60;2.50;;;;;;;22.01;52.22;101101.91;4521912;28;20048;-63
2022/10/29 02:14:46;;;;;;;5.05;2.60;;;;;;;22.01;52.74;101091.25;4521567;28;21374;-64
2022/10/29 02:16:59;;;;;;;5.22;2.60;;;;;;;22.01;52.58;101084.66;4522977;28;20033;-64
2022/10/29 02:19:09;;;;;;;5.15;2.40;;;;;;;22.00;52.58;101095.34;4522200;28;20034;-64
2022/10/29 02:21:20;;;;;;;3.72;2.60;;;;;;;22.01;52.57;101090.41;4523264;28;20037;-63
2022/10/29 02:23:30;;;;;;;3.13;2.35;;;;;;;22.00;52.22;101089.59;4522469;28;20033;-63
2022/10/29 02:25:41;;;;;;;5.32;2.70;;;;;;;22.00;52.18;101094.50;4522467;28;20041;-64
2022/10/29 02:27:51;;;;;;;3.42;2.55;;;;;;;22.00;52.65;101088.75;4522057;28;20032;-64
2022/10/29 02:30:03;;;;;;;4.47;2.35;;;;;;;22.00;52.67;101075.22;4521605;28;20825;-64
2022/10/29 02:32:13;;;;;;;3.35;2.33;;;;;;;22.00;52.54;101074.38;4521286;28;20044;-64
2022/10/29 02:34:24;;;;;;;4.25;2.50;;;;;;;22.00;52.33;101083.00;4522496;28;20087;-63
2022/10/29 02:36:34;;;;;;;3.75;2.30;;;;;;;21.99;52.38;101075.59;4521862;28;20048;-64
2022/10/29 02:38:44;;;;;;;3.53;2.35;;;;;;;21.99;52.01;101082.16;4520373;28;20038;-63
2022/10/29 02:40:55;;;;;;;2.67;2.10;;;;;;;21.99;51.92;101081.34;4520553;28;20567;-64
2022/10/29 02:43:05;;;;;;;2.60;1.92;;;;;;;21.99;51.85;101064.91;4521838;28;20822;-64
2022/10/29 02:45:16;;;;;;;3.10;2.47;;;;;;;21.99;51.87;101069.84;4521956;28;20100;-63
2022/10/29 02:47:27;;;;;;;3.53;2.28;;;;;;;21.99;52.35;101062.03;4523382;28;20037;-63
2022/10/29 02:49:37;;;;;;;3.50;2.33;;;;;;;21.99;51.96;101053.41;4521413;28;20156;-64
2022/10/29 02:51:47;;;;;;;3.58;2.30;;;;;;;21.99;52.33;101046.84;4522451;28;20053;-63
2022/10/29 02:53:58;;;;;;;4.80;2.55;;;;;;;21.97;52.14;101047.22;4522824;28;20045;-63
2022/10/29 02:56:09;;;;;;;4.25;2.40;;;;;;;21.98;51.99;101046.00;4520812;28;20293;-64
2022/10/29 02:58:19;;;;;;;3.60;2.38;;;;;;;21.89;51.82;101036.69;4522589;28;20767;-63
2022/10/29 03:00:30;;;;;;;3.08;2.00;;;;;;;21.98;51.63;101060.38;4521453;28;20135;-64
2022/10/29 03:02:40;;;;;;;3.05;2.00;;;;;;;21.99;51.52;101062.03;4522071;28;25560;-64
2022/10/29 03:04:50;;;;;;;2.92;2.00;;;;;;;21.94;51.81;101062.31;4521624;28;20096;-63
2022/10/29 03:07:01;;;;;;;3.25;2.00;;;;;;;21.98;51.56;101074.75;4521850;28;20048;-64
2022/10/29 03:09:11;;;;;;;3.53;2.17;;;;;;;21.98;51.80;101077.63;4521123;28;20713;-63
2022/10/29 03:11:22;;;;;;;3.35;2.20;;;;;;;21.98;51.71;101074.75;4536160;28;20068;-63
2022/10/29 03:13:32;;;;;;;4.07;2.17;;;;;;;21.98;51.96;101086.22;4521277;28;20035;-63
2022/10/29 03:15:44;;;;;;;3.67;2.03;;;;;;;21.97;51.81;101084.56;4521846;28;20052;-63
2022/10/29 03:17:54;;;;;;;3.75;2.17;;;;;;;21.98;51.38;101073.88;4522305;28;20542;-64
2022/10/29 03:20:05;;;;;;;2.85;1.92;;;;;;;21.98;51.14;101074.75;4520996;28;20076;-64
2022/10/29 03:22:16;;;;;;;4.47;2.47;;;;;;;21.97;51.30;101061.59;4520800;28;20764;-64
2022/10/29 03:24:26;;;;;;;3.25;2.08;;;;;;;21.97;51.21;101070.19;4520543;28;20458;-64
2022/10/29 03:26:37;;;;;;;3.42;2.30;;;;;;;21.95;51.42;101063.97;4519908;28;20083;-63
2022/10/29 03:28:47;;;;;;;2.72;2.00;;;;;;;21.97;50.88;101064.44;4520812;28;20038;-63
2022/10/29 03:30:57;;;;;;;5.20;2.40;;;;;;;21.97;50.89;101070.19;4503913;28;20057;-64
2022/10/29 03:33:08;;;;;;;3.63;2.35;;;;;;;21.97;51.30;101060.72;4521418;28;20117;-64
2022/10/29 03:35:18;;;;;;;2.38;1.95;;;;;;;21.96;51.01;101059.88;4520683;28;20128;-63
2022/10/29 03:37:29;;;;;;;5.35;2.50;;;;;;;21.97;50.74;101055.00;4519522;28;20040;-64
2022/10/29 03:39:39;;;;;;;3.42;2.38;;;;;;;21.96;51.15;101051.25;4520901;28;20025;-63
2022/10/29 03:41:49;;;;;;;3.38;2.20;;;;;;;21.97;50.76;101052.97;4519536;28;20038;-64
2022/10/29 03:44:00;;;;;;;4.78;2.10;;;;;;;21.96;51.08;101048.38;4521716;28;20039;-64
2022/10/29 03:46:10;;;;;;;4.30;2.25;;;;;;;21.94;50.63;101042.19;4520522;28;20060;-64
2022/10/29 03:48:22;;;;;;;3.45;2.00;;;;;;;21.96;51.00;101054.13;4522534;28;20402;-64
2022/10/29 03:50:33;;;;;;;4.13;2.15;;;;;;;21.96;50.89;101041.81;4521030;28;20022;-63
2022/10/29 03:52:43;;;;;;;5.20;2.65;;;;;;;21.96;50.85;101048.38;4521422;28;20042;-64
2022/10/29 03:54:53;;;;;;;3.63;2.38;;;;;;;21.95;51.21;101052.47;4521120;28;27376;-64
2022/10/29 03:57:04;;;;;;;3.92;2.40;;;;;;;21.96;51.28;101054.13;4522077;28;20130;-63
2022/10/29 03:59:14;;;;;;;4.20;2.55;;;;;;;21.96;52.03;101048.38;4520592;28;20048;-64
2022/10/29 04:01:25;;;;;;;3.17;2.40;;;;;;;21.96;51.96;101045.53;4521576;28;20253;-64
2022/10/29 04:03:37;;;;;;;3.35;2.40;;;;;;;21.95;52.15;101049.59;4520749;28;21231;-64
2022/10/29 04:05:47;;;;;;;3.20;2.30;;;;;;;21.95;51.90;101052.47;4521916;28;21251;-64
2022/10/29 04:07:58;;;;;;;4.90;2.55;;;;;;;21.95;51.75;101052.47;4519595;28;20035;-64
2022/10/29 04:10:08;;;;;;;3.92;2.45;;;;;;;21.93;51.91;101049.13;4521061;28;20144;-63
2022/10/29 04:12:19;;;;;;;3.47;2.20;;;;;;;21.95;51.19;101054.50;4520522;28;20367;-64
2022/10/29 04:14:29;;;;;;;3.10;2.30;;;;;;;21.92;51.10;101046.63;4520671;28;20125;-63
2022/10/29 04:16:39;;;;;;;3.40;2.33;;;;;;;21.95;50.81;101043.84;4519908;28;20072;-63
2022/10/29 04:18:50;;;;;;;3.40;2.13;;;;;;;21.93;50.95;101054.88;4519678;28;20048;-64
2022/10/29 04:21:01;;;;;;;4.53;2.50;;;;;;;21.94;50.78;101056.56;4521341;28;20034;-64
2022/10/29 04:23:12;;;;;;;2.80;2.05;;;;;;;21.96;51.05;101056.19;4521080;28;20036;-63
2022/10/29 04:25:22;;;;;;;2.67;1.98;;;;;;;21.95;50.67;101055.34;4519089;28;20034;-64
2022/10/29 04:27:32;;;;;;;4.65;2.05;;;;;;;21.94;50.47;101053.69;4519857;28;20519;-63
2022/10/29 04:29:43;;;;;;;3.80;2.20;;;;;;;21.94;50.46;101062.31;4519940;28;20068;-64
2022/10/29 04:31:53;;;;;;;3.28;2.15;;;;;;;21.92;50.20;101052.38;4518222;28;20034;-64
2022/10/29 04:34:04;;;;;;;3.05;2.20;;;;;;;21.94;50.62;101052.84;4520704;28;20060;-63
2022/10/29 04:36:14;;;;;;;3.55;2.22;;;;;;;21.94;50.18;101050.81;4519301;28;20827;-64
2022/10/29 04:38:25;;;;;;;4.32;2.30;;;;;;;21.94;50.45;101055.72;4536212;28;20090;-64
2022/10/29 04:40:35;;;;;;;2.97;2.20;;;;;;;21.95;50.31;101057.38;4520522;28;20041;-64
2022/10/29 04:42:45;;;;;;;3.83;2.35;;;;;;;21.94;50.44;101058.59;4522220;28;20037;-64
2022/10/29 04:44:56;;;;;;;3.95;2.53;;;;;;;21.95;49.93;101054.50;4520561;28;20025;-64
2022/10/29 04:47:06;;;;;;;3.50;2.13;;;;;;;21.95;50.36;101052.47;4520841;28;20084;-64
2022/10/29 04:49:17;;;;;;;4.03;2.42;;;;;;;21.94;50.22;101052.84;4523147;28;20091;-63
2022/10/29 04:51:27;;;;;;;3.90;2.40;;;;;;;21.94;50.23;101050.81;4523289;28;20654;-63
2022/10/29 04:53:38;;;;;;;4.95;2.40;;;;;;;21.95;50.23;101060.25;4524262;28;20053;-63
2022/10/29 04:55:49;;;;;;;5.13;2.60;;;;;;;21.94;50.03;101056.56;4521726;28;20697;-63
2022/10/29 04:57:59;;;;;;;4.53;2.63;;;;;;;21.94;50.30;101067.22;4524138;28;22473;-64
2022/10/29 05:00:10;;;;;;;4.53;2.35;;;;;;;21.93;50.31;101063.50;4523675;28;22622;-64
2022/10/29 05:02:21;;;;;;;4.18;2.33;;;;;;;21.92;50.62;101056.09;4522866;28;20042;-63
2022/10/29 05:04:31;;;;;;;4.10;2.65;;;;;;;21.94;51.02;101062.31;4524274;28;20918;-64
2022/10/29 05:06:42;;;;;;;4.35;2.22;;;;;;;21.94;51.23;101056.56;4521179;28;20060;-63
2022/10/29 05:08:52;;;;;;;4.03;2.10;;;;;;;21.92;51.20;101047.47;4521781;28;20111;-63
2022/10/29 05:11:04;;;;;;;3.58;2.42;;;;;;;21.93;50.67;101045.41;4522506;28;20445;-64
2022/10/29 05:13:14;;;;;;;4.70;2.25;;;;;;;21.93;51.04;101043.38;4522409;28;20249;-64
2022/10/29 05:15:25;;;;;;;3.90;2.70;;;;;;;21.93;50.75;101037.63;4522922;28;20100;-64
2022/10/29 05:17:39;;;;;;;4.05;2.20;;;;;;;21.93;50.83;101034.75;4522138;28;20033;-64
2022/10/29 05:19:50;;;;;;;3.22;2.40;;;;;;;21.92;50.95;101030.22;4524097;28;20036;-64
2022/10/29 05:22:00;;;;;;;3.20;2.45;;;;;;;21.92;51.13;101018.72;4522763;28;20045;-63
2022/10/29 05:24:10;;;;;;;4.28;2.55;;;;;;;21.93;51.18;101020.38;4523334;28;20029;-64
2022/10/29 05:26:21;;;;;;;3.72;2.25;;;;;;;21.92;51.30;101024.47;4524325;28;20472;-64
2022/10/29 05:28:31;;;;;;;3.50;2.22;;;;;;;21.93;51.14;101031.88;4522086;28;20045;-64
2022/10/29 05:30:42;;;;;;;4.65;2.45;;;;;;;21.92;50.70;101027.34;4521414;28;20045;-66
2022/10/29 05:32:53;;;;;;;4.03;2.55;;;;;;;21.92;50.93;101015.84;4523319;28;20025;-64
2022/10/29 05:35:03;;;;;;;4.07;2.30;;;;;;;21.92;51.27;101006.38;4523073;28;20069;-64
2022/10/29 05:37:14;;;;;;;4.90;2.42;;;;;;;21.91;51.59;101004.72;4522228;28;20052;-64
2022/10/29 05:39:24;;;;;;;3.75;2.60;;;;;;;21.92;51.65;101017.88;4521827;28;20041;-63
2022/10/29 05:41:35;;;;;;;4.32;2.80;;;;;;;21.90;51.45;101015.38;4522513;28;20057;-64
2022/10/29 05:43:49;;;;;;;4.68;2.90;;;;;;;21.92;51.28;101021.59;4523117;28;20558;-63
2022/10/29 05:46:03;;;;;;;5.20;2.53;;;;;;;21.89;50.91;101019.47;4521712;28;20096;-64
2022/10/29 05:48:13;;;;;;;3.88;2.33;;;;;;;21.92;50.93;101023.63;4521491;28;20190;-64
2022/10/29 05:50:24;;;;;;;4.43;2.60;;;;;;;21.90;50.82;101018.25;4522064;28;20119;-63
2022/10/29 05:52:35;;;;;;;5.30;3.10;;;;;;;21.90;50.71;101015.38;4522070;28;20088;-64
2022/10/29 05:54:45;;;;;;;3.45;2.45;;;;;;;21.89;50.79;101007.97;4522331;28;20046;-64
2022/10/29 05:56:57;;;;;;;5.07;2.85;;;;;;;21.92;51.26;101018.72;4522544;28;20036;-64
2022/10/29 05:59:07;;;;;;;4.75;2.75;;;;;;;21.91;51.21;101005.53;4522356;28;21433;-64
2022/10/29 06:01:18;;;;;;;5.35;3.17;;;;;;;21.90;51.30;101003.88;4521300;28;20048;-64
2022/10/29 06:03:28;;;;;;;4.93;2.33;;;;;;;21.92;51.14;101003.50;4520930;28;20283;-64
2022/10/29 06:05:39;;;;;;;4.55;2.53;;;;;;;21.92;51.36;101000.63;4521636;28;20047;-64
2022/10/29 06:07:54;;;;;;;4.45;2.28;;;;;;;21.92;51.48;100995.72;4521984;28;20401;-64
2022/10/29 06:10:05;;;;;;;4.00;2.38;;;;;;;21.91;51.38;100993.22;4523140;28;20072;-64
2022/10/29 06:12:16;;;;;;;4.60;2.33;;;;;;;21.90;51.57;100986.63;4522113;28;20037;-64
2022/10/29 06:14:26;;;;;;;5.38;2.65;;;;;;;21.89;51.63;100984.97;4521752;28;20033;-64
2022/10/29 06:16:37;;;;;;;4.03;2.42;;;;;;;21.88;51.44;100980.41;4537669;28;20461;-64
2022/10/29 06:18:47;;;;;;;4.93;2.63;;;;;;;21.89;51.45;100979.22;4522416;28;20034;-64
2022/10/29 06:20:59;;;;;;;5.70;2.60;;;;;;;21.88;51.31;100971.78;4522343;28;20104;-68
2022/10/29 06:23:10;;;;;;;3.70;2.65;;;;;;;21.88;51.15;100974.66;4522096;28;20508;-64
2022/10/29 06:25:20;;;;;;;3.78;2.30;;;;;;;21.89;51.67;100995.63;4523510;28;20040;-64
2022/10/29 06:27:31;;;;;;;4.57;2.80;;;;;;;21.88;51.07;100997.66;4522468;28;20734;-64
2022/10/29 06:29:41;;;;;;;4.53;2.42;;;;;;;21.89;51.30;100995.63;4522223;28;20040;-63
2022/10/29 06:31:52;;;;;;;2.78;2.22;;;;;;;21.88;50.98;101000.53;4521349;28;20033;-64
2022/10/29 06:34:02;;;;;;;3.47;2.17;;;;;;;21.88;50.95;100989.03;4522238;28;20076;-64
2022/10/29 06:36:12;;;;;;;3.80;2.40;;;;;;;21.89;51.04;100996.47;4521467;28;20073;-66
2022/10/29 06:38:23;;;;;;;3.13;2.22;;;;;;;21.87;50.79;100987.38;4521692;28;20065;-63
2022/10/29 06:40:34;;;;;;;3.92;2.30;;;;;;;21.87;50.66;100986.53;4522114;28;20044;-63
2022/10/29 06:42:44;;;;;;;4.32;2.30;;;;;;;21.87;50.71;100987.38;4522199;28;20037;-64
2022/10/29 06:44:54;;;;;;;4.20;2.65;;;;;;;21.88;50.99;101009.16;4521621;28;20026;-64
2022/10/29 06:47:05;;;;;;;3.92;2.45;;;;;;;21.88;51.09;101008.34;4521386;28;20092;-64
2022/10/29 06:49:15;;;;;;;4.70;2.65;;;;;;;21.88;51.25;101014.09;4520456;28;20072;-64
2022/10/29 06:51:26;;;;;;;4.68;2.80;;;;;;;21.87;51.13;101018.97;4536133;28;20390;-63
2022/10/29 06:53:36;;;;;;;4.70;2.60;;;;;;;21.86;51.44;101020.19;4520132;28;20068;-64
2022/10/29 06:55:47;;;;;;;5.57;2.47;;;;;;;21.87;51.37;101018.13;4519795;28;20766;-63
2022/10/29 06:58:06;;;;;;;4.38;2.42;;;;;;;21.87;51.20;101012.38;4521283;28;20143;-64
2022/10/29 07:00:16;;;;;;;3.35;2.30;;;;;;;21.87;51.38;101016.09;4516933;28;20706;-64
2022/10/29 07:02:27;;;;;;;4.28;2.67;;;;;;;21.77;51.42;100987.88;4521126;28;20116;-63
2022/10/29 07:04:37;;;;;;;4.03;2.40;;;;;;;21.85;51.59;101007.00;4521164;28;20065;-64
2022/10/29 07:06:48;;;;;;;5.47;2.55;;;;;;;21.86;51.90;101014.44;4537362;28;20847;-63
2022/10/29 07:08:58;;;;;;;3.78;2.45;;;;;;;21.86;51.52;101017.31;4521989;28;20086;-63
2022/10/29 07:11:08;;;;;;;2.90;2.00;;;;;;;21.84;51.92;101016.84;4521462;28;20083;-63
2022/10/29 07:13:19;;;;;;;4.20;2.60;;;;;;;21.85;51.50;101015.63;4522077;28;20837;-63
2022/10/29 07:15:30;;;;;;;5.22;2.42;;;;;;;21.86;51.45;101013.59;4521928;28;20901;-63
2022/10/29 07:17:40;;;;;;;3.88;2.80;;;;;;;21.86;51.61;101020.19;4521568;28;20030;-64
2022/10/29 07:19:51;;;;;;;3.92;2.50;;;;;;;21.86;52.03;101008.69;4521913;28;20041;-64
2022/10/29 07:22:01;;;;;;;3.40;2.40;;;;;;;21.83;51.98;101009.44;4521114;28;20045;-64
2022/10/29 07:24:12;;;;;;;3.15;2.22;;;;;;;21.85;52.30;101007.00;4520756;28;20029;-64
2022/10/29 07:26:22;;;;;;;5.13;2.45;;;;;;;21.79;52.42;100996.97;4522984;28;20037;-64
2022/10/29 07:28:32;;;;;;;3.38;2.38;;;;;;;21.85;52.64;101006.19;4521562;28;20033;-64
2022/10/29 07:30:43;;;;;;;3.70;2.30;;;;;;;21.86;52.38;101008.69;4522087;28;20847;-64
2022/10/29 07:32:54;;;;;;;4.85;2.35;;;;;;;21.85;52.39;101006.19;4520778;28;20042;-64
2022/10/29 07:35:05;;;;;;;4.22;2.60;;;;;;;21.85;52.46;101011.94;4521158;28;20046;-64
2022/10/29 07:37:15;;;;;;;4.53;2.42;;;;;;;21.83;52.51;101006.56;4520065;28;20037;-64
2022/10/29 07:39:25;;;;;;;4.97;2.33;;;;;;;21.86;52.63;101014.44;4522994;28;20044;-63
2022/10/29 07:41:36;;;;;;;5.88;2.63;;;;;;;21.86;52.75;101013.59;4520579;28;20041;-64
2022/10/29 07:43:46;;;;;;;4.90;2.38;;;;;;;21.85;52.93;101015.63;4521413;28;20034;-64
2022/10/29 07:45:57;;;;;;;3.42;2.13;;;;;;;21.86;53.07;101025.09;4520831;28;20040;-64
2022/10/29 07:48:08;;;;;;;3.85;2.10;;;;;;;21.80;53.04;101015.88;4520856;28;20025;-64
2022/10/29 07:50:19;;;;;;;3.85;2.30;;;;;;;21.85;53.23;101021.38;4521901;28;20191;-64
2022/10/29 07:52:29;;;;;;;3.45;2.25;;;;;;;21.86;52.96;101025.09;4522663;28;20638;-63
2022/10/29 07:54:39;;;;;;;5.15;2.38;;;;;;;21.85;53.42;101017.69;4522659;28;20494;-64
2022/10/29 07:56:52;;;;;;;5.40;2.47;;;;;;;21.86;53.30;101007.84;4522250;28;20048;-64
2022/10/29 07:59:02;;;;;;;4.72;2.50;;;;;;;21.86;53.59;101013.59;4522237;28;20059;-64
2022/10/29 08:01:13;;;;;;;3.95;2.50;;;;;;;21.79;53.54;101005.59;4521545;28;20099;-63
2022/10/29 08:03:23;;;;;;;6.18;2.63;;;;;;;21.87;53.81;101010.34;4521254;28;20111;-64
2022/10/29 08:05:34;;;;;;;3.90;2.20;;;;;;;21.84;54.09;101005.34;4521910;28;20029;-64
2022/10/29 08:07:44;;;;;;;3.35;2.20;;;;;;;21.85;54.33;101012.75;4519442;28;20513;-63
2022/10/29 08:09:55;;;;;;;4.82;2.60;;;;;;;21.86;54.15;101031.69;4520117;28;20038;-64
2022/10/29 08:12:09;;;;;;;4.95;2.38;;;;;;;21.86;54.69;101027.97;4522387;28;20132;-64
2022/10/29 08:14:19;;;;;;;3.90;2.30;;;;;;;21.84;54.41;101019.72;4522296;28;20045;-63
2022/10/29 08:16:30;;;;;;;3.53;2.10;;;;;;;21.86;54.55;101025.94;4522067;28;20022;-64
2022/10/29 08:18:40;;;;;;;5.85;2.40;;;;;;;21.85;55.02;101023.44;4520843;28;20030;-63
2022/10/29 08:20:51;;;;;;;4.65;2.60;;;;;;;21.85;55.18;101015.63;4522268;28;20037;-64
2022/10/29 08:23:01;;;;;;;4.60;2.50;;;;;;;21.85;55.06;101021.38;4524843;28;20055;-64
2022/10/29 08:25:12;;;;;;;4.40;2.38;;;;;;;21.85;54.95;101027.13;4524402;28;20037;-67
2022/10/29 08:27:22;;;;;;;4.78;2.55;;;;;;;21.83;55.06;101023.81;4540242;28;20114;-65
2022/10/29 08:29:33;;;;;;;4.05;2.40;;;;;;;21.85;54.93;101024.25;4525639;28;20474;-64
2022/10/29 08:31:43;;;;;;;5.00;2.35;;;;;;;21.85;55.14;101017.69;4522967;28;20037;-65
2022/10/29 08:33:54;;;;;;;3.80;2.50;;;;;;;21.86;55.18;101027.97;4525619;28;20044;-64
2022/10/29 08:36:04;;;;;;;4.13;2.20;;;;;;;21.85;55.25;101015.63;4524025;28;20474;-63
2022/10/29 08:38:15;;;;;;;3.95;2.40;;;;;;;21.87;55.42;101015.25;4524089;28;20048;-64
2022/10/29 08:40:44;;;;;;;4.60;2.80;;;;;;;21.86;55.28;101014.44;4525326;28;20112;-63
2022/10/29 08:43:15;;;;;;;4.57;2.90;;;;;;;21.87;55.79;101016.09;4541260;28;20025;-63
2022/10/29 08:45:47;;;;;;;3.78;2.40;;;;;;;21.86;55.82;101025.09;4524903;28;20156;-64
2022/10/29 08:48:15;;;;;;;3.55;2.42;;;;;;;21.86;55.97;101020.19;4538923;28;20067;-64
2022/10/29 08:50:40;;;;;;;5.15;2.30;;;;;;;21.88;55.92;101034.19;4524983;28;20563;-65
2022/10/29 08:52:51;;;;;;;3.85;2.60;;;;;;;21.87;55.49;101038.25;4525011;28;20034;-64
2022/10/29 08:55:06;;;;;;;3.17;2.50;;;;;;;21.88;55.91;101037.06;4523138;28;20165;-64
2022/10/29 08:57:20;;;;;;;4.60;2.22;;;;;;;21.86;55.89;101031.69;4525517;28;20041;-64
2022/10/29 08:59:40;;;;;;;4.55;2.80;;;;;;;21.87;56.00;101033.34;4525169;28;20030;-64
2022/10/29 09:01:52;;;;;;;5.18;2.70;;;;;;;21.84;56.54;101022.59;4524160;28;20619;-64
2022/10/29 09:04:11;;;;;;;4.88;2.55;;;;;;;21.87;56.32;101030.47;4523863;28;20769;-64
2022/10/29 09:06:21;;;;;;;4.38;2.33;;;;;;;21.86;56.63;101028.81;4523438;28;20597;-65
2022/10/29 09:08:51;;;;;;;5.30;2.60;;;;;;;21.87;57.22;101033.34;4523156;28;20029;-65
2022/10/29 09:11:12;;;;;;;3.65;2.38;;;;;;;21.86;57.42;101031.69;4524469;28;20235;-64
2022/10/29 09:13:45;;;;;;;4.05;2.63;;;;;;;21.87;57.25;101029.63;4524118;28;20666;-64
2022/10/29 09:16:17;;;;;;;3.85;2.70;;;;;;;21.87;57.55;101030.47;4524943;28;20056;-64
2022/10/29 09:18:33;;;;;;;4.13;2.60;;;;;;;21.86;57.53;101028.81;4525032;28;20033;-65
2022/10/29 09:21:04;;;;;;;4.00;2.10;;;;;;;21.87;57.59;101018.13;4522901;28;20095;-64
2022/10/29 09:23:39;;;;;;;4.75;2.90;;;;;;;21.87;57.85;101021.00;4523180;28;20033;-64
2022/10/29 09:26:04;;;;;;;5.57;2.63;;;;;;;21.86;57.51;101011.56;4525672;28;20065;-64
2022/10/29 09:28:42;;;;;;;3.63;2.70;;;;;;;21.87;57.12;101012.38;4522166;28;20199;-64
2022/10/29 09:31:14;;;;;;;4.28;2.50;;;;;;;21.86;57.07;101008.69;4524020;28;20065;-64
2022/10/29 09:33:26;;;;;;;3.80;2.30;;;;;;;21.85;57.27;101004.13;4523919;28;20654;-64
2022/10/29 09:35:51;;;;;;;4.25;2.60;;;;;;;21.85;57.34;101003.31;4522311;28;20049;-64
2022/10/29 09:38:11;;;;;;;5.25;2.33;;;;;;;21.85;57.28;101001.25;4524115;28;21307;-64
2022/10/29 09:40:32;;;;;;;4.03;2.53;;;;;;;21.86;57.23;100991.47;4524315;28;20033;-64
2022/10/29 09:42:46;;;;;;;3.85;2.30;;;;;;;21.86;57.76;100990.63;4523676;28;20134;-64
2022/10/29 09:45:01;;;;;;;4.60;2.47;;;;;;;21.86;57.61;100984.88;4522912;28;20033;-65
2022/10/29 09:47:20;;;;;;;4.50;2.83;;;;;;;21.86;58.18;100984.88;4538960;28;20458;-64
2022/10/29 09:49:56;;;;;;;5.68;2.40;;;;;;;21.86;58.39;100990.63;4521626;28;20589;-64
2022/10/29 09:52:18;;;;;;;4.65;2.75;;;;;;;21.86;58.83;100991.47;4524506;28;20165;-65
2022/10/29 09:54:30;;;;;;;6.03;2.83;;;;;;;21.84;58.73;100976.59;4522591;28;20143;-64
2022/10/29 09:56:42;;;;;;;6.80;2.70;;;;;;;21.86;59.32;100973.38;4522812;28;20038;-64
2022/10/29 09:58:57;;;;;;;4.13;2.47;;;;;;;21.85;58.94;100966.78;4522693;28;20784;-64
2022/10/29 10:01:08;;;;;;;4.60;2.60;;;;;;;21.86;59.56;100964.75;4521730;28;20119;-64
2022/10/29 10:03:44;;;;;;;5.25;3.10;;;;;;;21.86;59.61;100973.38;4538350;28;20461;-64
2022/10/29 10:05:59;;;;;;;4.40;3.10;;;;;;;21.86;59.14;100962.72;4523956;28;20108;-64
2022/10/29 10:08:13;;;;;;;3.78;2.53;;;;;;;21.86;59.49;100970.50;4521615;28;20033;-64
2022/10/29 10:10:24;;;;;;;3.33;2.35;;;;;;;21.80;59.28;100946.91;4522029;28;20076;-65
2022/10/29 10:12:35;;;;;;;4.75;2.67;;;;;;;21.90;57.63;100957.91;4521506;28;20921;-65
2022/10/29 10:14:46;;;;;;;4.60;2.40;;;;;;;22.18;55.98;100955.78;4523280;28;20055;-64
2022/10/29 10:16:59;;;;;;;4.43;2.55;;;;;;;21.94;59.59;100952.25;4538072;28;20637;-65
2022/10/29 10:19:22;;;;;;;4.43;2.47;;;;;;;21.90;60.51;100957.91;4538446;28;20037;-64
2022/10/29 10:21:32;;;;;;;3.83;2.55;;;;;;;21.87;60.71;100954.91;4537893;28;21028;-64